Terminal Aerodrome Forecast
Issued by NWS

Home | Current Version | Previous Version | Text Only | Print | Product List | Glossary On
Versions: 1 2 3 4 5 6 7 8 9 10 11 12 13 14 15
000
FTUS45 KREV 210334 AAA
TAFTVL
TAF AMD
KTVL 210334Z 2104/2124 20015G30KT 4SM RASN OVC018 WS015/23050KT
     FM211200 20020G35KT 3SM -SN SCT008 OVC015 WS015/23050KT
     FM211600 20015G28KT 1SM -SN OVC020 WS020/25040KT=

USA.gov is the U.S. government's official web portal to all federal, state and local government web resources and services.